Terminal Aerodrome Forecast
Issued by NWS

Home | Current Version | Previous Version | Graphics & Text | Print | Product List | Glossary On
Versions: 1 2 3 4 5 6 7 8 9 10 11 12 13 14 15 16 17 18 19
000
FTUS43 KGRB 282200 AAC
TAFCWA
TAF AMD
KCWA 282215Z 2822/2918 27005KT P6SM SCT018 BKN025
      TEMPO 2822/2824 5SM -SN BKN018 OVC025
     FM290000 30007KT P6SM SCT070
     FM290700 34008KT P6SM BKN150
     FM291400 34006KT P6SM SCT025 BKN100=

USA.gov is the U.S. government's official web portal to all federal, state and local government web resources and services.